Time;durP1;ratioP1;P1;durP2;ratioP2;P2;SDS_P1;SDS_P2;PMS_P1;PMS_P2;Temp;Humidity;BMP_temperature;BMP_pressure;BME280_temperature;BME280_humidity;BME280_pressure;Samples;Min_cycle;Max_cycle;Signal;HPM_P1;HPM_P2
2023/08/26 00:01:35;;;;;;;;;;;23.00;72.10;;;;;;5052460;28;880;-72
2023/08/26 00:04:00;;;;;;;;;;;23.00;72.10;;;;;;5052460;28;869;-71
2023/08/26 00:06:26;;;;;;;;;;;23.00;72.10;;;;;;5052490;28;808;-71
2023/08/26 00:08:51;;;;;;;;;;;23.00;72.10;;;;;;5051702;28;1313;-71
2023/08/26 00:11:16;;;;;;;;;;;23.00;72.10;;;;;;5052463;28;1972;-70
2023/08/26 00:13:42;;;;;;;;;;;23.00;72.10;;;;;;5052144;28;1030;-71
2023/08/26 00:16:07;;;;;;;;;;;23.00;72.10;;;;;;5052649;28;819;-70
2023/08/26 00:18:33;;;;;;;;;;;23.00;72.10;;;;;;5045368;28;1321;-71
2023/08/26 00:20:58;;;;;;;;;;;23.00;72.10;;;;;;5052133;28;895;-71
2023/08/26 00:23:24;;;;;;;;;;;23.00;72.10;;;;;;5052201;28;788;-71
2023/08/26 00:25:49;;;;;;;;;;;23.00;72.10;;;;;;5052069;28;1052;-71
2023/08/26 00:28:15;;;;;;;;;;;23.00;72.10;;;;;;5051524;28;952;-71
2023/08/26 00:30:40;;;;;;;;;;;23.00;72.10;;;;;;5051785;28;1185;-71
2023/08/26 00:33:07;;;;;;;;;;;22.90;72.00;;;;;;5043046;28;1902;-71
2023/08/26 00:35:32;;;;;;;;;;;23.00;72.10;;;;;;5051469;28;884;-71
2023/08/26 00:37:58;;;;;;;;;;;23.00;72.10;;;;;;5050513;28;1328;-72
2023/08/26 00:40:23;;;;;;;;;;;23.00;72.10;;;;;;5052041;28;1280;-72
2023/08/26 00:42:48;;;;;;;;;;;23.00;72.10;;;;;;5052920;28;891;-72
2023/08/26 00:45:14;;;;;;;;;;;23.00;72.10;;;;;;5052122;28;1521;-72
2023/08/26 00:47:39;;;;;;;;;;;23.00;72.10;;;;;;5051447;28;1332;-72
2023/08/26 00:50:05;;;;;;;;;;;23.00;72.10;;;;;;5051064;28;1272;-72
2023/08/26 00:52:30;;;;;;;;;;;22.90;72.10;;;;;;5044563;28;1981;-73
2023/08/26 00:54:56;;;;;;;;;;;22.90;72.00;;;;;;5046312;28;844;-72
2023/08/26 00:57:21;;;;;;;;;;;23.00;72.10;;;;;;5051346;28;894;-73
2023/08/26 00:59:47;;;;;;;;;;;23.00;72.10;;;;;;5050786;28;1322;-71
2023/08/26 01:02:12;;;;;;;;;;;23.00;72.10;;;;;;5043240;28;819;-71
2023/08/26 01:04:38;;;;;;;;;;;23.00;72.10;;;;;;5051176;28;919;-71
2023/08/26 01:07:04;;;;;;;;;;;23.00;72.10;;;;;;5046201;28;870;-71
2023/08/26 01:09:29;;;;;;;;;;;23.00;72.20;;;;;;5050279;28;1354;-71
2023/08/26 01:11:58;;;;;;;;;;;23.00;72.20;;;;;;5032735;28;1981;-71
2023/08/26 01:14:40;;;;;;;;;;;23.00;72.10;;;;;;5051365;28;837;-71
2023/08/26 01:17:05;;;;;;;;;;;23.00;72.10;;;;;;5051067;28;867;-71
2023/08/26 01:19:32;;;;;;;;;;;23.00;72.20;;;;;;5043486;28;1549;-73
2023/08/26 01:22:00;;;;;;;;;;;22.90;72.10;;;;;;5048666;28;878;-73
2023/08/26 01:24:25;;;;;;;;;;;23.00;72.20;;;;;;5052333;28;1038;-73
2023/08/26 01:26:52;;;;;;;;;;;23.00;72.20;;;;;;5043044;28;891;-73
2023/08/26 01:29:17;;;;;;;;;;;23.00;72.20;;;;;;5041358;28;1352;-73
2023/08/26 01:31:43;;;;;;;;;;;22.90;72.10;;;;;;5051391;28;1906;-71
2023/08/26 01:34:20;;;;;;;;;;;22.90;72.10;;;;;;5045658;28;816;-71
2023/08/26 01:36:45;;;;;;;;;;;23.00;72.20;;;;;;5051639;28;773;-71
2023/08/26 01:39:12;;;;;;;;;;;23.00;72.20;;;;;;5044739;28;1291;-71
2023/08/26 01:41:38;;;;;;;;;;;22.90;72.10;;;;;;5046223;28;862;-71
2023/08/26 01:44:04;;;;;;;;;;;22.90;72.10;;;;;;5050147;28;856;-71
2023/08/26 01:46:33;;;;;;;;;;;23.00;72.20;;;;;;5042428;28;1288;-72
2023/08/26 01:48:58;;;;;;;;;;;22.90;72.10;;;;;;5047943;28;1378;-72
2023/08/26 01:51:24;;;;;;;;;;;22.90;72.10;;;;;;5050431;28;1894;-72
2023/08/26 01:53:49;;;;;;;;;;;22.90;72.20;;;;;;5049852;28;922;-71
2023/08/26 01:56:15;;;;;;;;;;;22.90;72.10;;;;;;5043558;28;1014;-72
2023/08/26 01:58:40;;;;;;;;;;;23.00;72.20;;;;;;5049224;28;1288;-72
2023/08/26 02:01:08;;;;;;;;;;;22.90;72.10;;;;;;5050220;28;895;-71
2023/08/26 02:03:34;;;;;;;;;;;22.90;72.10;;;;;;5050540;28;898;-70
2023/08/26 02:05:59;;;;;;;;;;;22.90;72.10;;;;;;5050077;28;1208;-71
2023/08/26 02:08:25;;;;;;;;;;;22.90;72.10;;;;;;5049130;28;1329;-71
2023/08/26 02:10:56;;;;;;;;;;;23.00;72.20;;;;;;5049938;28;1918;-71
2023/08/26 02:13:25;;;;;;;;;;;22.90;72.10;;;;;;5045959;28;899;-71
2023/08/26 02:15:51;;;;;;;;;;;22.90;72.20;;;;;;5040970;28;852;-71
2023/08/26 02:18:16;;;;;;;;;;;22.90;72.20;;;;;;5049579;28;923;-71
2023/08/26 02:20:42;;;;;;;;;;;22.90;72.20;;;;;;5041945;28;1678;-71
2023/08/26 02:23:08;;;;;;;;;;;22.90;72.10;;;;;;5049863;28;941;-72
2023/08/26 02:25:33;;;;;;;;;;;22.90;72.20;;;;;;5049026;28;933;-72
2023/08/26 02:27:59;;;;;;;;;;;22.90;72.20;;;;;;5048829;28;1270;-71
2023/08/26 02:30:24;;;;;;;;;;;22.90;72.10;;;;;;5049773;28;1359;-72
2023/08/26 02:32:50;;;;;;;;;;;22.90;72.20;;;;;;5047988;28;1902;-72
2023/08/26 02:35:15;;;;;;;;;;;22.90;72.20;;;;;;5050347;28;1325;-72
2023/08/26 02:37:41;;;;;;;;;;;22.90;72.20;;;;;;5049382;28;1433;-71
2023/08/26 02:40:06;;;;;;;;;;;22.90;72.20;;;;;;5049393;28;1653;-71
2023/08/26 02:42:32;;;;;;;;;;;22.90;72.20;;;;;;5045094;28;1438;-71
2023/08/26 02:44:59;;;;;;;;;;;22.90;72.20;;;;;;5049411;28;1347;-72
2023/08/26 02:47:24;;;;;;;;;;;22.90;72.20;;;;;;5045931;28;1279;-71
2023/08/26 02:49:50;;;;;;;;;;;22.90;72.20;;;;;;5048597;28;1609;-71
2023/08/26 02:52:15;;;;;;;;;;;22.90;72.20;;;;;;5048905;28;1890;-71
2023/08/26 02:54:41;;;;;;;;;;;22.90;72.20;;;;;;5049794;28;812;-72
2023/08/26 02:57:06;;;;;;;;;;;22.90;72.20;;;;;;5049869;28;950;-71
2023/08/26 02:59:32;;;;;;;;;;;22.90;72.20;;;;;;5049447;28;1292;-71
2023/08/26 03:01:58;;;;;;;;;;;22.90;72.20;;;;;;5053661;28;966;-71
2023/08/26 03:04:24;;;;;;;;;;;22.90;72.20;;;;;;5049008;28;899;-71
2023/08/26 03:06:49;;;;;;;;;;;22.90;72.20;;;;;;5053903;28;962;-71
2023/08/26 03:09:15;;;;;;;;;;;22.90;72.20;;;;;;5052878;28;1342;-71
2023/08/26 03:11:40;;;;;;;;;;;22.90;72.20;;;;;;5053430;28;1995;-71
2023/08/26 03:14:06;;;;;;;;;;;22.90;72.20;;;;;;5052955;28;879;-71
2023/08/26 03:16:31;;;;;;;;;;;22.90;72.20;;;;;;5053374;28;851;-71
2023/08/26 03:18:56;;;;;;;;;;;22.90;72.20;;;;;;5052566;28;1380;-71
2023/08/26 03:21:24;;;;;;;;;;;22.90;72.20;;;;;;5052548;28;1156;-71
2023/08/26 03:23:49;;;;;;;;;;;22.90;72.20;;;;;;5053671;28;844;-71
2023/08/26 03:26:15;;;;;;;;;;;22.90;72.20;;;;;;5054528;28;1167;-71
2023/08/26 03:28:40;;;;;;;;;;;22.90;72.20;;;;;;5052355;28;1346;-71
2023/08/26 03:31:06;;;;;;;;;;;22.90;72.30;;;;;;5053293;28;1898;-71
2023/08/26 03:33:32;;;;;;;;;;;22.90;72.20;;;;;;5053213;28;895;-71
2023/08/26 03:35:58;;;;;;;;;;;22.90;72.20;;;;;;5052659;28;985;-71
2023/08/26 03:38:23;;;;;;;;;;;22.90;72.20;;;;;;5051954;28;1354;-71
2023/08/26 03:40:49;;;;;;;;;;;22.90;72.50;;;;;;5052788;28;831;-71
2023/08/26 03:43:14;;;;;;;;;;;22.90;72.20;;;;;;5053082;28;784;-71
2023/08/26 03:45:40;;;;;;;;;;;22.90;72.20;;;;;;5052978;28;860;-71
2023/08/26 03:48:05;;;;;;;;;;;22.90;72.20;;;;;;5067333;28;1375;-71
2023/08/26 03:50:31;;;;;;;;;;;22.90;72.20;;;;;;5047044;28;1277;-71
2023/08/26 03:52:56;;;;;;;;;;;22.90;72.30;;;;;;5052618;28;1971;-71
2023/08/26 03:55:22;;;;;;;;;;;22.90;72.20;;;;;;5052804;28;875;-71
2023/08/26 03:57:47;;;;;;;;;;;22.90;72.30;;;;;;5052076;28;914;-71
2023/08/26 04:00:14;;;;;;;;;;;22.90;72.30;;;;;;5052370;28;1275;-70
2023/08/26 04:02:40;;;;;;;;;;;22.90;72.30;;;;;;5051698;28;895;-71
2023/08/26 04:05:06;;;;;;;;;;;22.90;72.30;;;;;;5051940;28;863;-72
2023/08/26 04:07:31;;;;;;;;;;;22.90;72.30;;;;;;5055074;28;1322;-71
2023/08/26 04:09:56;;;;;;;;;;;22.90;72.30;;;;;;5051680;28;1245;-72
2023/08/26 04:12:22;;;;;;;;;;;22.90;72.30;;;;;;5052279;28;1945;-72
2023/08/26 04:14:47;;;;;;;;;;;22.90;72.30;;;;;;5052273;28;1049;-71
2023/08/26 04:17:13;;;;;;;;;;;22.90;72.30;;;;;;5052474;28;871;-71
2023/08/26 04:19:38;;;;;;;;;;;22.90;72.30;;;;;;5051369;28;1355;-71
2023/08/26 04:22:04;;;;;;;;;;;22.90;72.30;;;;;;5052327;28;828;-71
2023/08/26 04:24:31;;;;;;;;;;;22.90;72.30;;;;;;5052084;28;840;-71
2023/08/26 04:26:57;;;;;;;;;;;22.90;72.30;;;;;;5051790;28;922;-71
2023/08/26 04:29:22;;;;;;;;;;;22.90;72.30;;;;;;5046744;28;1345;-71
2023/08/26 04:31:47;;;;;;;;;;;22.90;72.30;;;;;;5052050;28;1906;-71
2023/08/26 04:34:13;;;;;;;;;;;22.90;72.30;;;;;;5051909;28;883;-71
2023/08/26 04:36:38;;;;;;;;;;;22.90;72.30;;;;;;5051912;28;891;-71
2023/08/26 04:39:10;;;;;;;;;;;22.90;72.30;;;;;;5051042;28;1285;-71
2023/08/26 04:41:37;;;;;;;;;;;22.90;72.60;;;;;;5050897;28;863;-71
2023/08/26 04:44:04;;;;;;;;;;;22.90;72.30;;;;;;5051890;28;843;-71
2023/08/26 04:46:31;;;;;;;;;;;22.90;72.30;;;;;;5052073;28;925;-71
2023/08/26 04:48:56;;;;;;;;;;;22.90;72.30;;;;;;5050771;28;1320;-71
2023/08/26 04:51:22;;;;;;;;;;;22.90;72.30;;;;;;5051498;28;1926;-71
2023/08/26 04:53:47;;;;;;;;;;;22.90;72.30;;;;;;5051564;28;825;-71
2023/08/26 04:56:13;;;;;;;;;;;22.90;72.40;;;;;;5051709;28;985;-71
2023/08/26 04:58:38;;;;;;;;;;;22.90;72.30;;;;;;5050413;28;1411;-71
2023/08/26 05:01:04;;;;;;;;;;;22.90;72.40;;;;;;5051849;28;866;-71
2023/08/26 05:03:29;;;;;;;;;;;22.90;72.40;;;;;;5051241;28;954;-71
2023/08/26 05:05:54;;;;;;;;;;;22.90;72.40;;;;;;5051676;28;1026;-71
2023/08/26 05:08:20;;;;;;;;;;;22.90;72.40;;;;;;5041911;28;1169;-72
2023/08/26 05:10:45;;;;;;;;;;;22.90;72.40;;;;;;5052664;28;1250;-70
2023/08/26 05:13:11;;;;;;;;;;;22.90;72.40;;;;;;5050771;28;1973;-71
2023/08/26 05:15:36;;;;;;;;;;;22.90;72.40;;;;;;5051344;28;869;-72
2023/08/26 05:18:03;;;;;;;;;;;22.90;73.10;;;;;;5045545;28;1199;-71
2023/08/26 05:20:29;;;;;;;;;;;22.90;72.30;;;;;;5050700;28;1363;-71
2023/08/26 05:22:55;;;;;;;;;;;22.90;72.40;;;;;;5050253;28;877;-72
2023/08/26 05:25:21;;;;;;;;;;;22.90;72.40;;;;;;5051106;28;891;-71
2023/08/26 05:27:47;;;;;;;;;;;22.90;72.40;;;;;;5050116;28;997;-72
2023/08/26 05:30:12;;;;;;;;;;;22.90;72.40;;;;;;5050848;28;1273;-71
2023/08/26 05:32:38;;;;;;;;;;;22.90;72.40;;;;;;5043155;28;1965;-72
2023/08/26 05:35:03;;;;;;;;;;;22.90;72.40;;;;;;5051230;28;898;-71
2023/08/26 05:37:29;;;;;;;;;;;22.90;72.40;;;;;;5042619;28;915;-71
2023/08/26 05:39:54;;;;;;;;;;;22.90;72.40;;;;;;5050472;28;1276;-71
2023/08/26 05:42:20;;;;;;;;;;;22.90;72.40;;;;;;5050929;28;886;-71
2023/08/26 05:44:45;;;;;;;;;;;22.90;72.40;;;;;;5043372;28;943;-71
2023/08/26 05:47:11;;;;;;;;;;;22.90;72.40;;;;;;5050549;28;1296;-70
2023/08/26 05:49:36;;;;;;;;;;;22.90;72.40;;;;;;5049805;28;1264;-71
2023/08/26 05:52:01;;;;;;;;;;;22.90;72.50;;;;;;5050738;28;1985;-71
2023/08/26 05:54:27;;;;;;;;;;;22.90;72.40;;;;;;5050296;28;931;-70
2023/08/26 05:56:52;;;;;;;;;;;22.90;72.40;;;;;;5050673;28;824;-71
2023/08/26 05:59:18;;;;;;;;;;;22.90;72.40;;;;;;5049681;28;1294;-70
2023/08/26 06:01:44;;;;;;;;;;;22.90;72.40;;;;;;5050365;28;817;-71
2023/08/26 06:04:10;;;;;;;;;;;22.90;72.40;;;;;;5050502;28;875;-71
2023/08/26 06:06:36;;;;;;;;;;;22.90;72.50;;;;;;5042465;28;2065;-69
2023/08/26 06:09:02;;;;;;;;;;;22.90;72.50;;;;;;5046340;28;1958;-69
2023/08/26 06:11:28;;;;;;;;;;;22.90;72.40;;;;;;5049474;28;1961;-70
2023/08/26 06:13:53;;;;;;;;;;;22.90;72.40;;;;;;5045224;28;1410;-69
2023/08/26 06:16:20;;;;;;;;;;;22.90;72.50;;;;;;5049840;28;836;-70
2023/08/26 06:18:48;;;;;;;;;;;22.90;72.50;;;;;;5048253;28;1289;-68
2023/08/26 06:21:14;;;;;;;;;;;22.90;72.50;;;;;;5049335;28;820;-68
2023/08/26 06:23:39;;;;;;;;;;;22.90;72.50;;;;;;5043927;28;877;-69
2023/08/26 06:26:05;;;;;;;;;;;22.90;72.40;;;;;;5049610;28;916;-69
2023/08/26 06:28:30;;;;;;;;;;;22.90;72.40;;;;;;5048300;28;1381;-69
2023/08/26 06:30:59;;;;;;;;;;;22.90;72.40;;;;;;5039762;28;894;-70
2023/08/26 06:33:25;;;;;;;;;;;22.90;72.40;;;;;;5040205;28;2056;-70
2023/08/26 06:35:50;;;;;;;;;;;22.90;72.40;;;;;;5038910;28;1076;-71
2023/08/26 06:38:16;;;;;;;;;;;22.90;72.40;;;;;;5042045;28;876;-69
2023/08/26 06:40:41;;;;;;;;;;;22.90;72.40;;;;;;5048832;28;1203;-69
2023/08/26 06:43:07;;;;;;;;;;;22.90;72.50;;;;;;5039922;28;911;-71
2023/08/26 06:45:33;;;;;;;;;;;22.90;72.40;;;;;;5048744;28;1121;-68
2023/08/26 06:47:58;;;;;;;;;;;22.90;72.40;;;;;;5043077;28;1477;-67
2023/08/26 06:50:24;;;;;;;;;;;22.90;72.50;;;;;;5049388;28;1292;-69
2023/08/26 06:52:49;;;;;;;;;;;22.90;72.50;;;;;;5049477;28;1933;-69
2023/08/26 06:55:15;;;;;;;;;;;22.90;72.50;;;;;;5049879;28;867;-69
2023/08/26 06:57:41;;;;;;;;;;;22.90;72.50;;;;;;5049614;28;893;-68
2023/08/26 07:00:08;;;;;;;;;;;22.90;72.50;;;;;;5035596;28;4469;-67
2023/08/26 07:02:34;;;;;;;;;;;22.90;72.50;;;;;;5044210;28;1920;-67
2023/08/26 07:04:59;;;;;;;;;;;22.90;72.40;;;;;;5047844;28;2122;-67
2023/08/26 07:07:25;;;;;;;;;;;22.90;72.50;;;;;;5041129;28;4189;-68
2023/08/26 07:09:50;;;;;;;;;;;22.90;72.50;;;;;;5048798;28;1345;-68
2023/08/26 07:12:15;;;;;;;;;;;22.90;72.50;;;;;;5049069;28;1946;-67
2023/08/26 07:14:41;;;;;;;;;;;22.90;72.50;;;;;;5049146;28;1230;-67
2023/08/26 07:17:06;;;;;;;;;;;22.90;72.50;;;;;;5049517;28;993;-67
2023/08/26 07:19:32;;;;;;;;;;;22.90;72.50;;;;;;5048347;28;1325;-68
2023/08/26 07:21:57;;;;;;;;;;;22.90;72.50;;;;;;5042103;28;987;-67
2023/08/26 07:24:23;;;;;;;;;;;22.90;72.50;;;;;;5049326;28;882;-67
2023/08/26 07:26:48;;;;;;;;;;;22.90;72.40;;;;;;5038145;28;899;-67
2023/08/26 07:29:14;;;;;;;;;;;22.90;72.50;;;;;;5047877;28;1343;-67
2023/08/26 07:31:40;;;;;;;;;;;22.90;72.50;;;;;;5049113;28;1933;-67
2023/08/26 07:34:05;;;;;;;;;;;22.90;72.50;;;;;;5049390;28;1268;-67
2023/08/26 07:36:31;;;;;;;;;;;22.90;72.50;;;;;;5049331;28;951;-67
2023/08/26 07:38:56;;;;;;;;;;;22.90;72.50;;;;;;5048497;28;1213;-67
2023/08/26 07:41:22;;;;;;;;;;;22.90;72.50;;;;;;5049054;28;1025;-67
2023/08/26 07:43:47;;;;;;;;;;;22.90;72.50;;;;;;5049240;28;926;-67
2023/08/26 07:46:13;;;;;;;;;;;22.90;72.50;;;;;;5033284;28;2075;-67
2023/08/26 07:48:38;;;;;;;;;;;22.90;72.50;;;;;;5051777;28;1375;-67
2023/08/26 07:51:04;;;;;;;;;;;22.90;72.50;;;;;;5055670;28;1963;-67
2023/08/26 07:53:29;;;;;;;;;;;22.90;72.50;;;;;;5051592;28;931;-68
2023/08/26 07:55:55;;;;;;;;;;;22.90;72.50;;;;;;5047684;28;836;-68
2023/08/26 07:58:20;;;;;;;;;;;22.90;72.50;;;;;;5051175;28;962;-68
2023/08/26 08:00:46;;;;;;;;;;;22.90;72.50;;;;;;5051546;28;1343;-68
2023/08/26 08:03:11;;;;;;;;;;;22.90;72.50;;;;;;5052499;28;841;-68
2023/08/26 08:05:38;;;;;;;;;;;22.90;72.50;;;;;;5051994;28;1257;-67
2023/08/26 08:08:03;;;;;;;;;;;22.90;72.50;;;;;;5051915;28;821;-67
2023/08/26 08:10:29;;;;;;;;;;;22.90;72.50;;;;;;5052537;28;1682;-68
2023/08/26 08:12:54;;;;;;;;;;;22.90;72.50;;;;;;5051797;28;1914;-68
2023/08/26 08:15:20;;;;;;;;;;;22.90;72.60;;;;;;5052331;28;859;-68
2023/08/26 08:17:45;;;;;;;;;;;22.90;72.60;;;;;;5052409;28;2313;-68
2023/08/26 08:20:11;;;;;;;;;;;22.90;72.50;;;;;;5051640;28;1343;-68
2023/08/26 08:22:41;;;;;;;;;;;22.90;72.60;;;;;;5051481;28;1505;-67
2023/08/26 08:25:07;;;;;;;;;;;22.90;72.50;;;;;;5051944;28;907;-68
2023/08/26 08:27:32;;;;;;;;;;;22.90;72.50;;;;;;5052051;28;1267;-68
2023/08/26 08:29:59;;;;;;;;;;;22.90;72.60;;;;;;5050865;28;1341;-68
2023/08/26 08:32:24;;;;;;;;;;;22.90;72.60;;;;;;5052253;28;1945;-68
2023/08/26 08:34:50;;;;;;;;;;;22.90;72.60;;;;;;5052075;28;856;-68
2023/08/26 08:37:15;;;;;;;;;;;22.90;72.60;;;;;;5052499;28;920;-69
2023/08/26 08:39:41;;;;;;;;;;;22.90;72.60;;;;;;5051362;28;1219;-67
2023/08/26 08:42:06;;;;;;;;;;;22.90;72.60;;;;;;5052689;28;953;-68
2023/08/26 08:44:33;;;;;;;;;;;22.90;72.60;;;;;;5046744;28;926;-68
2023/08/26 08:46:58;;;;;;;;;;;22.90;72.50;;;;;;5051925;28;1603;-68
2023/08/26 08:49:24;;;;;;;;;;;22.90;72.60;;;;;;5046141;28;1421;-68
2023/08/26 08:51:50;;;;;;;;;;;22.90;72.70;;;;;;5051435;28;1973;-68
2023/08/26 08:54:15;;;;;;;;;;;22.90;72.60;;;;;;5045072;28;896;-68
2023/08/26 08:56:41;;;;;;;;;;;22.90;72.60;;;;;;5045559;28;903;-68
2023/08/26 08:59:06;;;;;;;;;;;22.80;72.50;;;;;;5050226;28;1239;-67
2023/08/26 09:01:32;;;;;;;;;;;22.90;72.60;;;;;;5044453;28;873;-68
2023/08/26 09:03:57;;;;;;;;;;;22.90;72.60;;;;;;5051788;28;1073;-68
2023/08/26 09:06:23;;;;;;;;;;;22.90;72.60;;;;;;5051624;28;820;-68
2023/08/26 09:08:48;;;;;;;;;;;22.90;72.70;;;;;;5051075;28;1255;-68
2023/08/26 09:11:14;;;;;;;;;;;22.90;72.60;;;;;;5051072;28;1906;-68
2023/08/26 09:13:39;;;;;;;;;;;22.90;72.60;;;;;;5051313;28;923;-67
2023/08/26 09:16:05;;;;;;;;;;;22.80;72.50;;;;;;5051471;28;883;-68
2023/08/26 09:18:31;;;;;;;;;;;22.90;72.60;;;;;;5050532;28;1325;-68
2023/08/26 09:20:57;;;;;;;;;;;22.90;72.60;;;;;;5045760;28;910;-68
2023/08/26 09:23:22;;;;;;;;;;;22.90;72.70;;;;;;5043300;28;853;-68
2023/08/26 09:25:54;;;;;;;;;;;22.90;72.60;;;;;;5046941;28;821;-68
2023/08/26 09:28:20;;;;;;;;;;;22.90;72.70;;;;;;5050448;28;1321;-68
2023/08/26 09:31:04;;;;;;;;;;;22.80;72.60;;;;;;5050629;28;1280;-68
2023/08/26 09:33:30;;;;;;;;;;;22.80;72.60;;;;;;5050468;28;1910;-68
2023/08/26 09:35:55;;;;;;;;;;;22.80;72.60;;;;;;5050723;28;1018;-68
2023/08/26 09:38:21;;;;;;;;;;;22.90;72.70;;;;;;5049654;28;792;-68
2023/08/26 09:40:46;;;;;;;;;;;22.80;72.60;;;;;;5050677;28;1572;-68
2023/08/26 09:43:12;;;;;;;;;;;22.90;72.70;;;;;;5043814;28;940;-68
2023/08/26 09:45:38;;;;;;;;;;;22.80;72.60;;;;;;5050753;28;1077;-68
2023/08/26 09:48:05;;;;;;;;;;;22.90;72.70;;;;;;5027872;28;1386;-68
2023/08/26 09:50:31;;;;;;;;;;;22.90;72.70;;;;;;5044004;28;1220;-68
2023/08/26 09:52:57;;;;;;;;;;;22.90;72.70;;;;;;5050837;28;1907;-69
2023/08/26 09:55:22;;;;;;;;;;;22.80;72.60;;;;;;5050706;28;891;-67
2023/08/26 09:57:48;;;;;;;;;;;22.90;72.70;;;;;;5044986;28;1105;-67
2023/08/26 10:00:15;;;;;;;;;;;22.90;72.70;;;;;;5045156;28;1248;-66
2023/08/26 10:02:48;;;;;;;;;;;22.80;72.70;;;;;;5050645;28;962;-69
2023/08/26 10:05:17;;;;;;;;;;;22.80;72.60;;;;;;5044078;28;891;-68
2023/08/26 10:07:45;;;;;;;;;;;22.80;72.60;;;;;;5050231;28;901;-67
2023/08/26 10:10:11;;;;;;;;;;;22.90;72.70;;;;;;5038305;28;1337;-68
2023/08/26 10:12:39;;;;;;;;;;;22.90;72.70;;;;;;5042313;28;1922;-68
2023/08/26 10:15:04;;;;;;;;;;;22.90;72.70;;;;;;5050054;28;857;-68
2023/08/26 10:17:30;;;;;;;;;;;22.80;72.60;;;;;;5043710;28;1174;-68
2023/08/26 10:19:56;;;;;;;;;;;22.80;72.60;;;;;;5049571;28;1346;-68
2023/08/26 10:22:21;;;;;;;;;;;22.80;72.70;;;;;;5041311;28;1218;-68
2023/08/26 10:24:47;;;;;;;;;;;22.80;72.70;;;;;;5051468;28;878;-69
2023/08/26 10:27:12;;;;;;;;;;;22.90;72.70;;;;;;5051092;28;1394;-68
2023/08/26 10:29:38;;;;;;;;;;;22.80;72.70;;;;;;5049344;28;1304;-67
2023/08/26 10:32:17;;;;;;;;;;;22.80;72.70;;;;;;5034959;28;1976;-68
2023/08/26 10:34:55;;;;;;;;;;;22.90;72.70;;;;;;5052652;28;864;-67
2023/08/26 10:37:24;;;;;;;;;;;22.80;72.60;;;;;;5027967;28;1184;-68
2023/08/26 10:39:50;;;;;;;;;;;22.80;72.60;;;;;;5043257;28;1242;-68
2023/08/26 10:42:16;;;;;;;;;;;22.90;72.70;;;;;;5050219;28;939;-68
2023/08/26 10:44:43;;;;;;;;;;;22.80;72.70;;;;;;5041668;28;1548;-68
2023/08/26 10:47:08;;;;;;;;;;;22.80;72.70;;;;;;5045021;28;1543;-68
2023/08/26 10:49:35;;;;;;;;;;;22.80;72.60;;;;;;5048071;28;1238;-68
2023/08/26 10:52:16;;;;;;;;;;;22.80;72.70;;;;;;5045551;28;1930;-68
2023/08/26 10:54:45;;;;;;;;;;;22.80;72.70;;;;;;5043611;28;871;-69
2023/08/26 10:57:11;;;;;;;;;;;22.80;72.60;;;;;;5045730;28;2024;-68
2023/08/26 10:59:37;;;;;;;;;;;22.80;72.70;;;;;;5048651;28;1343;-69
2023/08/26 11:02:06;;;;;;;;;;;22.80;72.70;;;;;;5048733;28;1341;-69
2023/08/26 11:04:31;;;;;;;;;;;22.80;72.70;;;;;;5049294;28;1195;-69
2023/08/26 11:06:57;;;;;;;;;;;22.80;72.70;;;;;;5050591;28;882;-68
2023/08/26 11:09:22;;;;;;;;;;;22.80;72.70;;;;;;5049545;28;1327;-68
2023/08/26 11:11:48;;;;;;;;;;;22.80;72.70;;;;;;5050212;28;1906;-68
2023/08/26 11:14:13;;;;;;;;;;;22.80;72.70;;;;;;5050030;28;1073;-68
2023/08/26 11:16:39;;;;;;;;;;;22.80;72.70;;;;;;5049957;28;949;-68
2023/08/26 11:19:04;;;;;;;;;;;22.80;72.70;;;;;;5049274;28;1364;-68
2023/08/26 11:21:30;;;;;;;;;;;22.80;72.70;;;;;;5047695;28;875;-67
2023/08/26 11:23:55;;;;;;;;;;;22.80;72.70;;;;;;5053089;28;812;-68
2023/08/26 11:26:21;;;;;;;;;;;22.80;72.70;;;;;;5048474;28;1216;-68
2023/08/26 11:28:47;;;;;;;;;;;22.80;72.70;;;;;;5052812;28;1350;-68
2023/08/26 11:31:13;;;;;;;;;;;22.80;72.70;;;;;;5047875;28;1905;-67
2023/08/26 11:33:38;;;;;;;;;;;22.80;72.70;;;;;;5053684;28;1716;-67
2023/08/26 11:36:03;;;;;;;;;;;22.80;72.70;;;;;;5052717;28;808;-67
2023/08/26 11:38:35;;;;;;;;;;;22.80;72.70;;;;;;5044001;28;1247;-67
2023/08/26 11:41:07;;;;;;;;;;;22.80;72.70;;;;;;5046981;28;863;-68
2023/08/26 11:43:35;;;;;;;;;;;22.80;72.70;;;;;;5053310;28;863;-68
2023/08/26 11:46:01;;;;;;;;;;;22.80;72.70;;;;;;5052963;28;884;-67
2023/08/26 11:48:26;;;;;;;;;;;22.80;72.70;;;;;;5047869;28;1316;-68
2023/08/26 11:50:53;;;;;;;;;;;22.80;72.70;;;;;;5047176;28;1172;-68
2023/08/26 11:53:22;;;;;;;;;;;22.80;72.70;;;;;;5049292;28;1975;-68
2023/08/26 11:55:47;;;;;;;;;;;22.80;72.70;;;;;;5053516;28;851;-67
2023/08/26 11:58:13;;;;;;;;;;;22.80;72.70;;;;;;5048673;28;962;-67
2023/08/26 12:00:38;;;;;;;;;;;22.80;72.70;;;;;;5052760;28;1284;-67
2023/08/26 12:03:04;;;;;;;;;;;22.80;72.70;;;;;;5053154;28;907;-67
2023/08/26 12:05:59;;;;;;;;;;;22.80;72.70;;;;;;5053838;28;776;-67
2023/08/26 12:08:25;;;;;;;;;;;22.80;72.70;;;;;;5038895;28;1201;-67
2023/08/26 12:10:51;;;;;;;;;;;22.80;72.70;;;;;;5053939;28;1219;-66
2023/08/26 12:13:16;;;;;;;;;;;22.80;72.70;;;;;;5053082;28;1878;-68
2023/08/26 12:15:42;;;;;;;;;;;22.80;72.70;;;;;;5052611;28;986;-69
2023/08/26 12:18:09;;;;;;;;;;;22.80;72.70;;;;;;5047932;28;1354;-69
2023/08/26 12:20:34;;;;;;;;;;;22.80;72.70;;;;;;5051904;28;1385;-69
2023/08/26 12:23:06;;;;;;;;;;;22.80;72.70;;;;;;5051234;28;1475;-68
2023/08/26 12:25:35;;;;;;;;;;;22.80;72.70;;;;;;5049749;28;900;-69
2023/08/26 12:28:19;;;;;;;;;;;22.80;72.70;;;;;;5052034;28;866;-69
2023/08/26 12:30:45;;;;;;;;;;;22.80;72.80;;;;;;5048416;28;1508;-69
2023/08/26 12:33:10;;;;;;;;;;;22.80;72.70;;;;;;5048070;28;1935;-69
2023/08/26 12:35:36;;;;;;;;;;;22.80;72.70;;;;;;5052587;28;1045;-69
2023/08/26 12:38:02;;;;;;;;;;;22.80;72.70;;;;;;5043431;28;967;-68
2023/08/26 12:40:31;;;;;;;;;;;22.80;72.80;;;;;;5052472;28;1358;-69
2023/08/26 12:42:57;;;;;;;;;;;22.80;72.70;;;;;;5052416;28;851;-69
2023/08/26 12:45:23;;;;;;;;;;;22.80;72.80;;;;;;5047439;28;923;-69
2023/08/26 12:47:48;;;;;;;;;;;22.80;72.70;;;;;;5051855;28;1283;-69
2023/08/26 12:50:14;;;;;;;;;;;22.80;72.80;;;;;;5051963;28;1259;-69
2023/08/26 12:52:40;;;;;;;;;;;22.80;72.70;;;;;;5052094;28;1959;-69
2023/08/26 12:55:06;;;;;;;;;;;22.80;72.70;;;;;;5051407;28;817;-69
2023/08/26 12:57:31;;;;;;;;;;;22.80;72.70;;;;;;5044679;28;1062;-69
2023/08/26 12:59:57;;;;;;;;;;;22.80;72.70;;;;;;5051877;28;1272;-69
2023/08/26 13:02:22;;;;;;;;;;;22.80;72.70;;;;;;5052750;28;883;-68
2023/08/26 13:04:48;;;;;;;;;;;22.80;72.70;;;;;;5052917;28;845;-68
2023/08/26 13:07:14;;;;;;;;;;;22.80;72.70;;;;;;5052415;28;1555;-69
2023/08/26 13:09:39;;;;;;;;;;;22.80;72.80;;;;;;5048040;28;2007;-68
2023/08/26 13:12:05;;;;;;;;;;;22.80;72.80;;;;;;5051960;28;1918;-69
2023/08/26 13:14:30;;;;;;;;;;;22.80;72.80;;;;;;5051921;28;1055;-68
2023/08/26 13:16:56;;;;;;;;;;;22.80;72.80;;;;;;5047551;28;998;-68
2023/08/26 13:19:21;;;;;;;;;;;22.80;72.70;;;;;;5050826;28;1389;-68
2023/08/26 13:21:49;;;;;;;;;;;22.80;72.90;;;;;;5052323;28;776;-68
2023/08/26 13:24:15;;;;;;;;;;;22.80;72.80;;;;;;5052896;28;844;-69
2023/08/26 13:26:40;;;;;;;;;;;22.80;72.80;;;;;;5051657;28;891;-68
2023/08/26 13:29:06;;;;;;;;;;;22.80;72.80;;;;;;5050834;28;1440;-71
2023/08/26 13:31:31;;;;;;;;;;;22.80;72.80;;;;;;5052005;28;1973;-68
2023/08/26 13:33:57;;;;;;;;;;;22.80;72.80;;;;;;5050890;28;978;-68
2023/08/26 13:36:22;;;;;;;;;;;22.80;72.80;;;;;;5051906;28;781;-68
2023/08/26 13:38:48;;;;;;;;;;;22.80;72.80;;;;;;5050625;28;1267;-68
2023/08/26 13:41:13;;;;;;;;;;;22.80;72.80;;;;;;5050915;28;1196;-68
2023/08/26 13:43:38;;;;;;;;;;;22.80;72.80;;;;;;5050840;28;911;-68
2023/08/26 13:46:04;;;;;;;;;;;22.80;72.80;;;;;;5050350;28;801;-68
2023/08/26 13:48:30;;;;;;;;;;;22.80;72.80;;;;;;5050309;28;1398;-68
2023/08/26 13:50:55;;;;;;;;;;;22.80;72.80;;;;;;5051117;28;884;-68
2023/08/26 13:53:20;;;;;;;;;;;22.80;72.80;;;;;;5051316;28;1902;-68
2023/08/26 13:55:46;;;;;;;;;;;22.80;72.80;;;;;;5052116;28;891;-69
2023/08/26 13:58:14;;;;;;;;;;;22.80;72.80;;;;;;5052105;28;1149;-68
2023/08/26 14:00:40;;;;;;;;;;;22.80;72.80;;;;;;5051090;28;1294;-68
2023/08/26 14:03:06;;;;;;;;;;;22.80;72.80;;;;;;5050259;28;843;-68
2023/08/26 14:05:31;;;;;;;;;;;22.80;72.80;;;;;;5050864;28;1225;-68
2023/08/26 14:07:57;;;;;;;;;;;22.80;72.80;;;;;;5049931;28;950;-68
2023/08/26 14:10:22;;;;;;;;;;;22.80;72.80;;;;;;5050885;28;1346;-68
2023/08/26 14:12:48;;;;;;;;;;;22.80;72.80;;;;;;5049638;28;1903;-68
2023/08/26 14:15:13;;;;;;;;;;;22.80;72.80;;;;;;5050371;28;807;-68
2023/08/26 14:17:39;;;;;;;;;;;22.80;72.80;;;;;;5050677;28;820;-68
2023/08/26 14:20:05;;;;;;;;;;;22.80;73.50;;;;;;5048245;28;1359;-68
2023/08/26 14:22:30;;;;;;;;;;;22.80;72.80;;;;;;5051454;28;852;-68
2023/08/26 14:24:56;;;;;;;;;;;22.80;72.80;;;;;;5050844;28;789;-68
2023/08/26 14:27:21;;;;;;;;;;;22.80;72.80;;;;;;5051123;28;800;-68
2023/08/26 14:29:47;;;;;;;;;;;22.80;72.80;;;;;;5050396;28;1691;-68